SBBR/BSB METAR and TAF weather

Enter ICAO airport designator
Station Type Date Time Source
SBBR METAR 2020/07/05 02:00 UTC NOAA

SBBR 050200Z VRB02KT CAVOK 20/13 Q1021


Station Type Date Time Source
SBBR Decoded METAR 2020/07/05 02:00 UTC NOAA

Brasilia Aeroporto , Brazil (SBBR) 15-52S 047-56W 1061M
Jul 04, 2020 - 10:00 PM EDT / 2020.07.05 0200 UTC
Wind: Variable at 2 MPH (2 KT):0
Visibility: greater than 7 mile(s):0
Temperature: 68 F (20 C)
Dew Point: 55 F (13 C)
Relative Humidity: 64%
Pressure (altimeter): 30.15 in. Hg (1021 hPa)
ob: SBBR 050200Z VRB02KT CAVOK 20/13 Q1021
cycle: 2

Station Type Date Time Source
SBBR TAF 2020/07/05 00:00 UTC NOAA

TAF SBBR 042100Z 0500/0524 12007KT CAVOK TN15/0508Z TX27/5418Z
BECMG 0508/0510 00000KT 9999 SCT040
BECMG 0514/0516 09005KT FEW040
RMK PFF

Example: see airport list